createdAt,value
2023-03-13T00:01:46.503Z,2.38
2023-03-13T00:04:13.187Z,2.22
2023-03-13T00:06:40.362Z,2.63
2023-03-13T00:09:09.540Z,3.05
2023-03-13T00:11:36.350Z,2.55
2023-03-13T00:14:04.697Z,3.97
2023-03-13T00:16:31.998Z,2.60
2023-03-13T00:18:59.121Z,2.58
2023-03-13T00:21:27.845Z,3.40
2023-03-13T00:23:54.690Z,4.95
2023-03-13T00:26:23.557Z,4.28
2023-03-13T00:28:51.497Z,2.30
2023-03-13T00:31:29.722Z,2.47
2023-03-13T00:34:01.701Z,3.00
2023-03-13T00:36:30.852Z,3.20
2023-03-13T00:38:57.837Z,4.07
2023-03-13T00:41:26.705Z,4.18
2023-03-13T00:43:53.999Z,2.30
2023-03-13T00:46:23.108Z,3.30
2023-03-13T00:48:50.827Z,2.33
2023-03-13T00:51:18.980Z,2.42
2023-03-13T00:53:46.441Z,3.95
2023-03-13T00:56:14.968Z,1.90
2023-03-13T00:58:43.240Z,2.40
2023-03-13T01:01:17.970Z,3.13
2023-03-13T01:03:47.416Z,2.28
2023-03-13T01:06:16.705Z,2.42
2023-03-13T01:08:43.617Z,2.25
2023-03-13T01:11:14.310Z,1.85
2023-03-13T01:13:41.148Z,2.63
2023-03-13T01:16:10.891Z,3.10
2023-03-13T01:18:39.184Z,1.90
2023-03-13T01:21:07.864Z,2.45
2023-03-13T01:23:34.721Z,1.65
2023-03-13T01:26:01.594Z,2.30
2023-03-13T01:28:28.381Z,2.42
2023-03-13T01:30:55.088Z,1.98
2023-03-13T01:33:21.799Z,1.85
2023-03-13T01:35:48.560Z,2.65
2023-03-13T01:38:15.276Z,2.03
2023-03-13T01:40:47.504Z,1.75
2023-03-13T01:43:27.332Z,2.00
2023-03-13T01:46:13.679Z,2.30
2023-03-13T01:49:30.165Z,2.40
2023-03-13T01:52:26.604Z,2.30
2023-03-13T01:55:09.748Z,1.88
2023-03-13T01:57:41.228Z,2.20
2023-03-13T02:00:19.927Z,1.98
2023-03-13T02:02:49.120Z,2.00
2023-03-13T02:05:17.486Z,1.98
2023-03-13T02:07:51.042Z,2.55
2023-03-13T02:10:18.091Z,1.80
2023-03-13T02:12:44.982Z,2.05
2023-03-13T02:15:30.658Z,4.22
2023-03-13T02:17:57.669Z,2.22
2023-03-13T02:20:25.155Z,2.70
2023-03-13T02:23:03.855Z,1.60
2023-03-13T02:25:36.316Z,2.40
2023-03-13T02:28:13.464Z,1.92
2023-03-13T02:30:43.540Z,1.60
2023-03-13T02:33:11.749Z,1.80
2023-03-13T02:35:38.746Z,2.33
2023-03-13T02:38:13.054Z,1.75
2023-03-13T02:40:43.279Z,1.75
2023-03-13T02:43:15.860Z,3.28
2023-03-13T02:45:42.722Z,3.70
2023-03-13T02:48:10.583Z,2.00
2023-03-13T02:50:38.056Z,1.73
2023-03-13T02:53:07.320Z,3.08
2023-03-13T02:55:38.990Z,1.80
2023-03-13T02:58:05.608Z,1.88
2023-03-13T03:00:35.755Z,1.58
2023-03-13T03:03:02.420Z,1.67
2023-03-13T03:05:29.039Z,2.90
2023-03-13T03:07:56.924Z,2.30
2023-03-13T03:10:24.778Z,2.08
2023-03-13T03:12:52.095Z,1.65
2023-03-13T03:15:18.822Z,2.35
2023-03-13T03:17:47.737Z,2.00
2023-03-13T03:20:14.583Z,2.00
2023-03-13T03:22:43.049Z,1.85
2023-03-13T03:25:09.861Z,1.60
2023-03-13T03:27:36.858Z,1.40
2023-03-13T03:30:07.023Z,1.50
2023-03-13T03:32:35.499Z,1.83
2023-03-13T03:35:02.769Z,2.00
2023-03-13T03:37:29.759Z,1.50
2023-03-13T03:39:57.692Z,1.60
2023-03-13T03:42:24.696Z,2.10
2023-03-13T03:44:51.383Z,1.60
2023-03-13T03:47:18.510Z,1.73
2023-03-13T03:49:47.419Z,1.40
2023-03-13T03:52:15.468Z,1.67
2023-03-13T03:54:43.680Z,1.60
2023-03-13T03:57:10.855Z,1.58
2023-03-13T03:59:39.246Z,1.77
2023-03-13T04:02:08.400Z,1.95
2023-03-13T04:04:35.838Z,1.65
2023-03-13T04:07:18.247Z,1.60
2023-03-13T04:09:44.964Z,1.70
2023-03-13T04:12:20.200Z,2.05
2023-03-13T04:14:47.613Z,1.70
2023-03-13T04:17:15.339Z,2.38
2023-03-13T04:19:43.660Z,2.10
2023-03-13T04:22:10.311Z,1.70
2023-03-13T04:24:40.263Z,1.80
2023-03-13T04:27:08.161Z,1.80
2023-03-13T04:29:35.299Z,1.63
2023-03-13T04:32:31.215Z,2.05
2023-03-13T04:35:00.737Z,1.90
2023-03-13T04:38:05.552Z,1.80
2023-03-13T04:40:49.997Z,1.80
2023-03-13T04:43:30.435Z,2.15
2023-03-13T04:46:06.688Z,2.03
2023-03-13T04:48:44.899Z,1.85
2023-03-13T04:51:42.825Z,2.20
2023-03-13T04:54:24.637Z,2.25
2023-03-13T04:57:07.317Z,1.88
2023-03-13T04:59:41.957Z,1.75
2023-03-13T05:02:22.897Z,1.70
2023-03-13T05:05:05.640Z,2.65
2023-03-13T05:07:50.976Z,2.05
2023-03-13T05:10:36.622Z,3.33
2023-03-13T05:13:05.767Z,2.67
2023-03-13T05:15:40.225Z,4.57
2023-03-13T05:18:36.206Z,2.65
2023-03-13T05:21:28.781Z,2.55
2023-03-13T05:24:15.615Z,2.20
2023-03-13T05:26:51.480Z,3.53
2023-03-13T05:29:39.717Z,1.70
2023-03-13T05:32:15.456Z,2.25
2023-03-13T05:35:14.365Z,2.55
2023-03-13T05:37:41.489Z,2.53
2023-03-13T05:40:26.659Z,2.30
2023-03-13T05:43:08.059Z,2.22
2023-03-13T05:45:47.308Z,2.05
2023-03-13T05:48:30.628Z,12.55
2023-03-13T05:51:12.208Z,20.90
2023-03-13T05:53:57.522Z,17.00
2023-03-13T05:56:52.074Z,13.30
2023-03-13T05:59:41.965Z,11.88
2023-03-13T06:02:34.350Z,11.68
2023-03-13T06:05:03.545Z,9.57
2023-03-13T06:07:30.279Z,8.40
2023-03-13T06:09:57.681Z,7.32
2023-03-13T06:12:24.292Z,9.50
2023-03-13T06:14:50.867Z,8.32
2023-03-13T06:17:25.594Z,8.15
2023-03-13T06:19:52.266Z,7.45
2023-03-13T06:22:19.056Z,7.93
2023-03-13T06:24:46.883Z,6.55
2023-03-13T06:27:13.471Z,7.22
2023-03-13T06:29:40.018Z,6.47
2023-03-13T06:32:07.022Z,6.43
2023-03-13T06:34:34.027Z,6.05
2023-03-13T06:37:00.744Z,6.72
2023-03-13T06:39:27.551Z,7.35
2023-03-13T06:41:54.145Z,6.43
2023-03-13T06:44:20.718Z,9.75
2023-03-13T06:46:47.373Z,9.90
2023-03-13T06:49:13.987Z,9.52
2023-03-13T06:51:40.600Z,9.25
2023-03-13T06:54:07.242Z,10.57
2023-03-13T06:56:33.873Z,12.32
2023-03-13T06:59:01.108Z,10.65
2023-03-13T07:01:27.803Z,10.73
2023-03-13T07:03:54.473Z,14.93
2023-03-13T07:06:21.153Z,12.85
2023-03-13T07:08:47.761Z,11.73
2023-03-13T07:11:14.618Z,11.43
2023-03-13T07:13:41.582Z,12.57
2023-03-13T07:16:10.819Z,10.50
2023-03-13T07:18:38.261Z,10.75
2023-03-13T07:21:05.600Z,11.45
2023-03-13T07:23:34.439Z,10.57
2023-03-13T07:26:03.819Z,11.50
2023-03-13T07:28:31.587Z,11.68
2023-03-13T07:31:07.974Z,9.93
2023-03-13T07:33:34.757Z,9.30
2023-03-13T07:36:01.589Z,9.23
2023-03-13T07:38:28.240Z,10.77
2023-03-13T07:40:57.240Z,7.50
2023-03-13T07:43:25.400Z,10.23
2023-03-13T07:45:55.036Z,8.50
2023-03-13T07:48:22.960Z,10.02
2023-03-13T07:50:49.764Z,9.63
2023-03-13T07:53:22.898Z,8.95
2023-03-13T07:55:53.530Z,7.88
2023-03-13T07:58:20.455Z,7.80
2023-03-13T08:00:47.097Z,9.05
2023-03-13T08:03:13.788Z,9.05
2023-03-13T08:05:41.268Z,10.52
2023-03-13T08:08:08.164Z,7.65
2023-03-13T08:10:35.057Z,9.60
2023-03-13T08:13:01.805Z,12.55
2023-03-13T08:15:28.761Z,11.52
2023-03-13T08:17:55.966Z,9.02
2023-03-13T08:20:22.905Z,9.73
2023-03-13T08:22:52.310Z,9.30
2023-03-13T08:25:18.879Z,11.43
2023-03-13T08:27:45.540Z,9.95
2023-03-13T08:30:12.694Z,9.98
2023-03-13T08:32:39.336Z,9.93
2023-03-13T08:35:06.318Z,9.75
2023-03-13T08:37:32.880Z,8.10
2023-03-13T08:39:59.476Z,9.68
2023-03-13T08:42:26.037Z,11.45
2023-03-13T08:44:52.632Z,8.23
2023-03-13T08:47:19.249Z,8.60
2023-03-13T08:49:45.785Z,8.07
2023-03-13T08:52:12.412Z,9.15
2023-03-13T08:54:38.948Z,9.27
2023-03-13T08:57:05.513Z,8.90
2023-03-13T08:59:32.069Z,7.85
2023-03-13T09:01:58.698Z,7.72
2023-03-13T09:04:25.300Z,8.63
2023-03-13T09:06:51.988Z,9.52
2023-03-13T09:09:18.519Z,7.55
2023-03-13T09:11:45.137Z,7.68
2023-03-13T09:14:11.760Z,10.43
2023-03-13T09:16:38.398Z,10.15
2023-03-13T09:19:05.068Z,8.13
2023-03-13T09:21:33.829Z,12.60
2023-03-13T09:24:01.007Z,9.65
2023-03-13T09:26:28.212Z,10.05
2023-03-13T09:28:55.372Z,8.38
2023-03-13T09:31:24.323Z,12.10
2023-03-13T09:33:51.504Z,8.48
2023-03-13T09:36:21.478Z,7.15
2023-03-13T09:38:48.841Z,6.78
2023-03-13T09:41:18.242Z,8.65
2023-03-13T09:44:05.688Z,7.72
2023-03-13T09:46:44.711Z,6.60
2023-03-13T09:49:23.619Z,6.43
2023-03-13T09:51:53.736Z,7.22
2023-03-13T09:54:25.508Z,6.05
2023-03-13T09:56:59.097Z,7.28
2023-03-13T09:59:46.802Z,6.80
2023-03-13T10:02:22.805Z,6.63
2023-03-13T10:04:53.487Z,5.97
2023-03-13T10:07:21.266Z,6.70
2023-03-13T10:09:47.831Z,7.78
2023-03-13T10:12:28.385Z,8.38
2023-03-13T10:15:16.772Z,6.90
2023-03-13T10:17:43.724Z,5.85
2023-03-13T10:20:26.504Z,5.57
2023-03-13T10:23:07.872Z,5.20
2023-03-13T10:25:38.437Z,6.10
2023-03-13T10:28:06.733Z,6.22
2023-03-13T10:30:35.572Z,5.20
2023-03-13T10:33:07.932Z,5.50
2023-03-13T10:35:42.428Z,4.93
2023-03-13T10:38:13.987Z,5.55
2023-03-13T10:40:40.805Z,6.93
2023-03-13T10:43:19.723Z,5.95
2023-03-13T10:45:47.549Z,5.50
2023-03-13T10:48:15.816Z,5.32
2023-03-13T10:50:45.927Z,4.43
2023-03-13T10:53:30.684Z,4.95
2023-03-13T10:56:12.550Z,6.07
2023-03-13T10:58:44.597Z,5.60
2023-03-13T11:01:14.145Z,5.20
2023-03-13T11:03:40.819Z,6.00
2023-03-13T11:06:16.187Z,4.60
2023-03-13T11:08:42.917Z,7.07
2023-03-13T11:11:19.551Z,7.15
2023-03-13T11:13:46.489Z,5.45
2023-03-13T11:16:19.339Z,6.80
2023-03-13T11:18:57.881Z,4.88
2023-03-13T11:21:32.687Z,5.72
2023-03-13T11:24:06.356Z,7.45
2023-03-13T11:26:37.330Z,5.60
2023-03-13T11:29:22.712Z,5.57
2023-03-13T11:31:54.844Z,6.13
2023-03-13T11:34:25.869Z,4.07
2023-03-13T11:37:04.728Z,4.88
2023-03-13T11:39:46.944Z,3.63
2023-03-13T11:42:47.727Z,4.45
2023-03-13T11:45:47.995Z,4.70
2023-03-13T11:48:25.631Z,4.40
2023-03-13T11:50:59.348Z,4.65
2023-03-13T11:53:56.996Z,4.80
2023-03-13T11:56:47.162Z,4.70
2023-03-13T11:59:41.582Z,4.95
2023-03-13T12:02:22.758Z,4.20
2023-03-13T12:05:02.074Z,4.70
2023-03-13T12:07:52.667Z,4.78
2023-03-13T12:10:26.739Z,3.70
2023-03-13T12:13:11.863Z,4.40
2023-03-13T12:15:47.867Z,4.65
2023-03-13T12:18:44.376Z,5.65
2023-03-13T12:21:19.887Z,3.35
2023-03-13T12:23:58.679Z,3.78
2023-03-13T12:26:40.380Z,4.15
2023-03-13T12:29:28.232Z,4.00
2023-03-13T12:32:15.095Z,4.18
2023-03-13T12:35:00.430Z,3.75
2023-03-13T12:40:07.271Z,3.95
2023-03-13T12:42:44.807Z,3.88
2023-03-13T12:45:19.364Z,4.20
2023-03-13T12:47:54.873Z,2.90
2023-03-13T12:50:59.150Z,4.10
2023-03-13T12:53:34.674Z,4.35
2023-03-13T12:56:39.684Z,4.35
2023-03-13T12:59:17.026Z,4.72
2023-03-13T13:01:46.638Z,3.58
2023-03-13T13:04:33.361Z,4.00
2023-03-13T13:07:02.246Z,4.68
2023-03-13T13:09:31.727Z,4.93
2023-03-13T13:12:01.345Z,6.78
2023-03-13T13:14:27.889Z,4.20
2023-03-13T13:16:59.598Z,5.85
2023-03-13T13:19:26.229Z,5.15
2023-03-13T13:22:30.152Z,7.75
2023-03-13T13:24:58.672Z,8.77
2023-03-13T13:27:46.596Z,6.88
2023-03-13T13:30:18.954Z,6.28
2023-03-13T13:32:50.541Z,6.13
2023-03-13T13:35:30.293Z,9.23
2023-03-13T13:38:18.434Z,6.55
2023-03-13T13:41:09.688Z,6.95
2023-03-13T13:43:47.027Z,7.53
2023-03-13T13:46:16.361Z,5.70
2023-03-13T13:48:44.511Z,6.05
2023-03-13T13:51:11.467Z,5.75
2023-03-13T13:53:55.947Z,6.70
2023-03-13T13:56:28.757Z,6.53
2023-03-13T13:59:20.281Z,6.65
2023-03-13T14:01:49.697Z,6.50
2023-03-13T14:04:24.765Z,6.68
2023-03-13T14:06:52.146Z,6.45
2023-03-13T14:09:40.192Z,5.75
2023-03-13T14:12:26.846Z,4.85
2023-03-13T14:15:20.877Z,6.25
2023-03-13T14:17:49.940Z,4.72
2023-03-13T14:20:27.464Z,5.72
2023-03-13T14:22:56.656Z,4.55
2023-03-13T14:25:24.708Z,5.88
2023-03-13T14:27:52.574Z,6.05
2023-03-13T14:30:20.491Z,4.45
2023-03-13T14:32:47.653Z,4.43
2023-03-13T14:35:17.272Z,7.38
2023-03-13T14:37:46.033Z,3.42
2023-03-13T14:40:18.526Z,7.05
2023-03-13T14:42:47.945Z,4.82
2023-03-13T14:45:16.297Z,5.60
2023-03-13T14:47:44.078Z,4.07
2023-03-13T14:50:12.872Z,4.68
2023-03-13T14:52:46.683Z,4.63
2023-03-13T14:55:28.269Z,3.70
2023-03-13T14:58:01.791Z,5.50
2023-03-13T15:00:40.454Z,4.95
2023-03-13T15:03:20.282Z,5.38
2023-03-13T15:05:50.543Z,4.63
2023-03-13T15:08:22.592Z,6.88
2023-03-13T15:10:49.722Z,5.47
2023-03-13T15:13:29.737Z,6.50
2023-03-13T15:15:56.487Z,5.30
2023-03-13T15:18:25.924Z,6.03
2023-03-13T15:20:57.888Z,6.25
2023-03-13T15:23:24.618Z,7.05
2023-03-13T15:25:51.536Z,7.00
2023-03-13T15:28:22.885Z,6.97
2023-03-13T15:30:51.390Z,8.73
2023-03-13T15:33:20.440Z,7.57
2023-03-13T15:35:49.010Z,11.63
2023-03-13T15:38:21.343Z,11.75
2023-03-13T15:40:48.118Z,12.75
2023-03-13T15:43:15.309Z,11.95
2023-03-13T15:45:43.859Z,11.18
2023-03-13T15:48:31.428Z,10.43
2023-03-13T15:51:04.045Z,9.27
2023-03-13T15:53:33.144Z,9.52
2023-03-13T15:56:01.353Z,12.88
2023-03-13T15:58:29.144Z,13.73
2023-03-13T16:00:56.763Z,11.02
2023-03-13T16:03:28.345Z,10.45
2023-03-13T16:05:56.154Z,15.98
2023-03-13T16:08:35.126Z,12.27
2023-03-13T16:11:02.891Z,12.95
2023-03-13T16:13:29.520Z,12.18
2023-03-13T16:15:56.665Z,13.20
2023-03-13T16:18:24.322Z,15.48
2023-03-13T16:20:51.624Z,13.82
2023-03-13T16:23:18.661Z,15.27
2023-03-13T16:25:49.050Z,15.93
2023-03-13T16:28:16.016Z,16.10
2023-03-13T16:30:47.680Z,17.60
2023-03-13T16:33:14.933Z,16.50
2023-03-13T16:35:41.680Z,16.58
2023-03-13T16:38:10.681Z,15.60
2023-03-13T16:40:37.398Z,15.07
2023-03-13T16:43:04.040Z,16.98
2023-03-13T16:45:30.661Z,15.63
2023-03-13T16:47:57.267Z,15.82
2023-03-13T16:50:33.074Z,15.98
2023-03-13T16:52:59.950Z,15.27
2023-03-13T16:55:31.536Z,16.52
2023-03-13T16:57:58.830Z,14.55
2023-03-13T17:00:30.104Z,19.50
2023-03-13T17:02:58.174Z,15.68
2023-03-13T17:05:26.297Z,14.18
2023-03-13T17:07:53.093Z,14.10
2023-03-13T17:10:25.584Z,12.50
2023-03-13T17:12:52.157Z,13.38
2023-03-13T17:15:20.104Z,11.40
2023-03-13T17:17:51.656Z,12.30
2023-03-13T17:20:22.548Z,12.25
2023-03-13T17:22:49.464Z,12.50
2023-03-13T17:25:16.032Z,12.30
2023-03-13T17:27:43.226Z,12.48
2023-03-13T17:30:21.208Z,13.43
2023-03-13T17:32:49.763Z,11.23
2023-03-13T17:35:17.541Z,11.85
2023-03-13T17:37:44.622Z,12.80
2023-03-13T17:40:17.242Z,11.88
2023-03-13T17:42:44.239Z,11.23
2023-03-13T17:45:11.691Z,10.70
2023-03-13T17:47:38.294Z,11.00
2023-03-13T17:50:14.844Z,9.48
2023-03-13T17:52:41.878Z,11.45
2023-03-13T17:55:09.210Z,10.25
2023-03-13T17:57:35.801Z,10.45
2023-03-13T18:00:02.660Z,10.85
2023-03-13T18:02:38.333Z,9.85
2023-03-13T18:05:05.324Z,11.68
2023-03-13T18:07:31.965Z,10.55
2023-03-13T18:09:58.734Z,10.05
2023-03-13T18:12:25.336Z,8.82
2023-03-13T18:14:51.866Z,8.68
2023-03-13T18:17:23.151Z,9.20
2023-03-13T18:19:50.510Z,10.43
2023-03-13T18:22:19.584Z,9.27
2023-03-13T18:24:46.163Z,8.77
2023-03-13T18:27:18.692Z,9.07
2023-03-13T18:29:46.820Z,9.23
2023-03-13T18:32:14.796Z,9.35
2023-03-13T18:34:41.752Z,8.77
2023-03-13T18:37:34.693Z,7.30
2023-03-13T18:40:01.288Z,7.43
2023-03-13T18:42:28.034Z,7.45
2023-03-13T18:44:54.654Z,7.63
2023-03-13T18:47:23.126Z,8.45
2023-03-13T18:49:50.864Z,7.57
2023-03-13T18:52:17.438Z,7.90
2023-03-13T18:54:44.932Z,7.53
2023-03-13T18:57:16.870Z,8.38
2023-03-13T18:59:43.729Z,8.38
2023-03-13T19:02:18.158Z,6.43
2023-03-13T19:04:45.841Z,7.40
2023-03-13T19:07:26.358Z,6.72
2023-03-13T19:09:56.107Z,7.85
2023-03-13T19:12:22.769Z,6.63
2023-03-13T19:14:49.357Z,6.75
2023-03-13T19:17:24.428Z,6.32
2023-03-13T19:19:50.981Z,6.93
2023-03-13T19:22:17.615Z,7.05
2023-03-13T19:24:44.182Z,7.10
2023-03-13T19:27:13.367Z,6.75
2023-03-13T19:29:40.089Z,6.43
2023-03-13T19:32:07.581Z,7.80
2023-03-13T19:34:34.295Z,7.72
2023-03-13T19:37:00.880Z,7.18
2023-03-13T19:39:27.663Z,6.70
2023-03-13T19:41:54.350Z,7.07
2023-03-13T19:44:21.777Z,7.13
2023-03-13T19:46:48.616Z,6.72
2023-03-13T19:49:19.714Z,6.07
2023-03-13T19:51:47.124Z,6.72
2023-03-13T19:54:13.944Z,5.30
2023-03-13T19:56:43.377Z,6.03
2023-03-13T19:59:24.308Z,5.63
2023-03-13T20:01:50.951Z,5.57
2023-03-13T20:04:17.583Z,5.47
2023-03-13T20:06:44.578Z,6.38
2023-03-13T20:09:14.781Z,5.60
2023-03-13T20:11:41.523Z,5.72
2023-03-13T20:14:08.100Z,5.20
2023-03-13T20:16:35.382Z,5.93
2023-03-13T20:19:02.465Z,5.15
2023-03-13T20:21:31.371Z,5.72
2023-03-13T20:23:58.509Z,6.38
2023-03-13T20:26:26.564Z,5.13
2023-03-13T20:28:54.512Z,5.05
2023-03-13T20:31:24.240Z,5.32
2023-03-13T20:33:51.406Z,6.55
2023-03-13T20:36:20.010Z,5.45
2023-03-13T20:38:47.064Z,5.85
2023-03-13T20:41:13.866Z,5.97
2023-03-13T20:43:40.479Z,5.40
2023-03-13T20:46:07.429Z,6.60
2023-03-13T20:48:42.376Z,5.63
2023-03-13T20:51:09.048Z,7.18
2023-03-13T20:53:37.153Z,4.70
2023-03-13T20:56:06.812Z,6.60
2023-03-13T20:58:36.911Z,5.43
2023-03-13T21:01:04.721Z,6.05
2023-03-13T21:03:35.139Z,6.25
2023-03-13T21:06:09.610Z,7.55
2023-03-13T21:08:38.628Z,5.13
2023-03-13T21:11:20.171Z,6.28
2023-03-13T21:13:47.168Z,7.00
2023-03-13T21:16:13.856Z,7.25
2023-03-13T21:18:40.566Z,6.72
2023-03-13T21:21:10.005Z,6.75
2023-03-13T21:23:37.756Z,4.53
2023-03-13T21:26:04.909Z,6.60
2023-03-13T21:28:31.548Z,9.05
2023-03-13T21:30:58.219Z,6.20
2023-03-13T21:33:24.941Z,5.35
2023-03-13T21:35:51.753Z,4.93
2023-03-13T21:38:18.372Z,6.80
2023-03-13T21:40:44.939Z,5.00
2023-03-13T21:43:11.570Z,6.55
2023-03-13T21:45:38.160Z,4.80
2023-03-13T21:48:04.796Z,5.45
2023-03-13T21:50:32.691Z,7.50
2023-03-13T21:52:59.341Z,5.85
2023-03-13T21:55:26.027Z,4.78
2023-03-13T21:57:52.651Z,4.53
2023-03-13T22:00:19.474Z,4.65
2023-03-13T22:02:46.075Z,4.85
2023-03-13T22:05:12.772Z,4.45
2023-03-13T22:07:39.439Z,5.20
2023-03-13T22:10:06.453Z,4.88
2023-03-13T22:12:32.993Z,7.93
2023-03-13T22:14:59.648Z,4.80
2023-03-13T22:17:26.231Z,6.65
2023-03-13T22:19:52.807Z,4.40
2023-03-13T22:22:21.851Z,6.28
2023-03-13T22:24:48.943Z,5.15
2023-03-13T22:27:15.774Z,4.28
2023-03-13T22:29:42.320Z,4.32
2023-03-13T22:32:09.635Z,4.93
2023-03-13T22:34:36.369Z,6.38
2023-03-13T22:37:03.066Z,5.20
2023-03-13T22:39:29.773Z,4.10
2023-03-13T22:41:56.398Z,4.13
2023-03-13T22:44:22.966Z,4.43
2023-03-13T22:46:49.561Z,4.90
2023-03-13T22:49:16.203Z,4.57
2023-03-13T22:51:42.800Z,5.93
2023-03-13T22:54:09.390Z,5.45
2023-03-13T22:56:35.985Z,3.95
2023-03-13T22:59:03.621Z,4.65
2023-03-13T23:01:30.221Z,3.80
2023-03-13T23:03:56.911Z,3.60
2023-03-13T23:06:25.695Z,6.10
2023-03-13T23:08:52.579Z,5.00
2023-03-13T23:11:20.652Z,8.35
2023-03-13T23:13:47.413Z,5.35
2023-03-13T23:16:14.772Z,6.05
2023-03-13T23:18:41.836Z,5.13
2023-03-13T23:21:11.363Z,4.43
2023-03-13T23:23:38.344Z,4.32
2023-03-13T23:26:07.995Z,4.95
2023-03-13T23:28:35.773Z,3.47
2023-03-13T23:31:13.822Z,4.80
2023-03-13T23:33:40.674Z,5.18
2023-03-13T23:36:16.099Z,4.22
2023-03-13T23:38:42.952Z,5.80
2023-03-13T23:41:11.846Z,10.38
2023-03-13T23:43:38.756Z,6.43
2023-03-13T23:46:05.986Z,10.32
2023-03-13T23:48:32.792Z,7.22
2023-03-13T23:50:59.387Z,10.73
2023-03-13T23:53:25.947Z,4.65
2023-03-13T23:55:58.988Z,9.63
2023-03-13T23:58:25.784Z,7.70
